sensor_id;sensor_type;location;lat;lon;timestamp;pressure;altitude;pressure_sealevel;temperature;humidity
60820;BME280;46641;48.904;9.126;2023-08-08T00:01:36;98700.94;;;19.85;47.81
60820;BME280;46641;48.904;9.126;2023-08-08T00:06:26;98708.31;;;19.83;47.85
60820;BME280;46641;48.904;9.126;2023-08-08T00:11:17;98700.94;;;19.79;47.97
60820;BME280;46641;48.904;9.126;2023-08-08T00:16:07;98703.97;;;19.76;47.99
60820;BME280;46641;48.904;9.126;2023-08-08T00:20:57;98703.56;;;19.72;48.28
60820;BME280;46641;48.904;9.126;2023-08-08T00:25:47;98709.28;;;19.69;48.31
60820;BME280;46641;48.904;9.126;2023-08-08T00:30:40;98704.41;;;19.66;48.42
60820;BME280;46641;48.904;9.126;2023-08-08T00:35:30;98707.63;;;19.61;48.76
60820;BME280;46641;48.904;9.126;2023-08-08T00:40:20;98699.88;;;19.60;48.99
60820;BME280;46641;48.904;9.126;2023-08-08T00:45:10;98693.28;;;19.56;49.14
60820;BME280;46641;48.904;9.126;2023-08-08T00:50:02;98686.56;;;19.53;49.18
60820;BME280;46641;48.904;9.126;2023-08-08T00:54:53;98693.69;;;19.53;49.33
60820;BME280;46641;48.904;9.126;2023-08-08T00:59:44;98691.25;;;19.51;49.29
60820;BME280;46641;48.904;9.126;2023-08-08T01:04:34;98683.47;;;19.50;49.36
60820;BME280;46641;48.904;9.126;2023-08-08T01:09:37;98678.78;;;19.45;49.55
60820;BME280;46641;48.904;9.126;2023-08-08T01:14:30;98686.75;;;19.45;49.70
60820;BME280;46641;48.904;9.126;2023-08-08T01:19:26;98678.16;;;19.43;49.81
60820;BME280;46641;48.904;9.126;2023-08-08T01:24:22;98680.38;;;19.39;49.82
60820;BME280;46641;48.904;9.126;2023-08-08T01:29:13;98676.91;;;19.39;49.82
60820;BME280;46641;48.904;9.126;2023-08-08T01:34:03;98670.56;;;19.33;50.39
60820;BME280;46641;48.904;9.126;2023-08-08T01:38:56;98667.50;;;19.30;50.45
60820;BME280;46641;48.904;9.126;2023-08-08T01:43:50;98672.81;;;19.30;50.71
60820;BME280;46641;48.904;9.126;2023-08-08T01:48:44;98662.59;;;19.27;51.04
60820;BME280;46641;48.904;9.126;2023-08-08T01:53:34;98668.28;;;19.24;50.76
60820;BME280;46641;48.904;9.126;2023-08-08T01:58:25;98667.06;;;19.20;50.70
60820;BME280;46641;48.904;9.126;2023-08-08T02:03:15;98663.81;;;19.18;51.06
60820;BME280;46641;48.904;9.126;2023-08-08T02:08:05;98657.47;;;19.19;50.97
60820;BME280;46641;48.904;9.126;2023-08-08T02:12:55;98656.66;;;19.18;50.87
60820;BME280;46641;48.904;9.126;2023-08-08T02:17:46;98650.94;;;19.14;50.83
60820;BME280;46641;48.904;9.126;2023-08-08T02:22:37;98642.34;;;19.12;50.69
60820;BME280;46641;48.904;9.126;2023-08-08T02:27:27;98648.03;;;19.09;50.73
60820;BME280;46641;48.904;9.126;2023-08-08T02:32:18;98645.00;;;19.12;50.63
60820;BME280;46641;48.904;9.126;2023-08-08T02:37:08;98645.00;;;19.12;50.67
60820;BME280;46641;48.904;9.126;2023-08-08T02:41:58;98645.22;;;19.11;50.60
60820;BME280;46641;48.904;9.126;2023-08-08T02:46:49;98649.50;;;19.12;50.41
60820;BME280;46641;48.904;9.126;2023-08-08T02:51:39;98652.72;;;19.07;50.61
60820;BME280;46641;48.904;9.126;2023-08-08T02:56:29;98648.66;;;19.05;50.78
60820;BME280;46641;48.904;9.126;2023-08-08T03:01:20;98652.53;;;19.02;50.75
60820;BME280;46641;48.904;9.126;2023-08-08T03:06:11;98652.31;;;19.04;50.57
60820;BME280;46641;48.904;9.126;2023-08-08T03:11:01;98651.72;;;19.08;50.49
60820;BME280;46641;48.904;9.126;2023-08-08T03:15:52;98640.47;;;19.06;50.36
60820;BME280;46641;48.904;9.126;2023-08-08T03:20:42;98640.69;;;19.05;50.27
60820;BME280;46641;48.904;9.126;2023-08-08T03:25:32;98640.28;;;19.01;50.32
60820;BME280;46641;48.904;9.126;2023-08-08T03:30:23;98642.94;;;19.01;50.16
60820;BME280;46641;48.904;9.126;2023-08-08T03:35:13;98649.63;;;18.97;50.33
60820;BME280;46641;48.904;9.126;2023-08-08T03:40:05;98649.41;;;18.92;50.42
60820;BME280;46641;48.904;9.126;2023-08-08T03:44:57;98647.56;;;18.86;50.78
60820;BME280;46641;48.904;9.126;2023-08-08T03:49:48;98657.53;;;18.84;50.85
60820;BME280;46641;48.904;9.126;2023-08-08T03:54:38;98658.34;;;18.84;51.04
60820;BME280;46641;48.904;9.126;2023-08-08T03:59:28;98656.53;;;18.85;50.85
60820;BME280;46641;48.904;9.126;2023-08-08T04:04:18;98643.28;;;18.85;50.87
60820;BME280;46641;48.904;9.126;2023-08-08T04:09:09;98649.97;;;18.81;51.25
60820;BME280;46641;48.904;9.126;2023-08-08T04:13:59;98646.06;;;18.77;51.31
60820;BME280;46641;48.904;9.126;2023-08-08T04:18:49;98654.25;;;18.75;51.36
60820;BME280;46641;48.904;9.126;2023-08-08T04:23:40;98653.41;;;18.75;51.57
60820;BME280;46641;48.904;9.126;2023-08-08T04:28:30;98654.25;;;18.75;51.47
60820;BME280;46641;48.904;9.126;2023-08-08T04:33:20;98661.34;;;18.75;51.40
60820;BME280;46641;48.904;9.126;2023-08-08T04:38:14;98664.38;;;18.72;51.77
60820;BME280;46641;48.904;9.126;2023-08-08T04:43:05;98665.38;;;18.71;51.72
60820;BME280;46641;48.904;9.126;2023-08-08T04:47:55;98664.38;;;18.72;52.11
60820;BME280;46641;48.904;9.126;2023-08-08T04:52:45;98657.81;;;18.67;51.93
60820;BME280;46641;48.904;9.126;2023-08-08T04:57:36;98653.53;;;18.66;51.94
60820;BME280;46641;48.904;9.126;2023-08-08T05:02:26;98656.19;;;18.66;52.02
60820;BME280;46641;48.904;9.126;2023-08-08T05:07:16;98652.91;;;18.64;51.84
60820;BME280;46641;48.904;9.126;2023-08-08T05:12:07;98650.47;;;18.63;51.91
60820;BME280;46641;48.904;9.126;2023-08-08T05:16:57;98659.22;;;18.63;52.02
60820;BME280;46641;48.904;9.126;2023-08-08T05:21:48;98657.59;;;18.62;52.23
60820;BME280;46641;48.904;9.126;2023-08-08T05:26:38;98669.91;;;18.42;52.82
60820;BME280;46641;48.904;9.126;2023-08-08T05:31:28;98671.56;;;18.43;52.69
60820;BME280;46641;48.904;9.126;2023-08-08T05:36:19;98675.88;;;18.51;52.42
60820;BME280;46641;48.904;9.126;2023-08-08T06:57:16;98666.56;;;18.61;52.64
60820;BME280;46641;48.904;9.126;2023-08-08T07:02:06;98658.22;;;18.64;52.82
60820;BME280;46641;48.904;9.126;2023-08-08T07:06:57;98655.16;;;18.67;52.66
60820;BME280;46641;48.904;9.126;2023-08-08T07:11:47;98659.06;;;18.72;52.58
60820;BME280;46641;48.904;9.126;2023-08-08T07:16:37;98661.34;;;18.75;52.86
60820;BME280;46641;48.904;9.126;2023-08-08T07:21:28;98664.63;;;18.77;52.52
60820;BME280;46641;48.904;9.126;2023-08-08T07:26:19;98664.03;;;18.81;52.56
60820;BME280;46641;48.904;9.126;2023-08-08T07:31:09;98648.56;;;18.85;52.61
60820;BME280;46641;48.904;9.126;2023-08-08T07:36:00;98653.69;;;18.93;52.29
60820;BME280;46641;48.904;9.126;2023-08-08T07:40:50;98648.63;;;18.98;52.32
60820;BME280;46641;48.904;9.126;2023-08-08T07:45:41;98649.09;;;19.15;51.84
60820;BME280;46641;48.904;9.126;2023-08-08T07:50:32;98647.50;;;19.21;52.02
60820;BME280;46641;48.904;9.126;2023-08-08T07:55:22;98646.50;;;19.35;51.58
60820;BME280;46641;48.904;9.126;2023-08-08T08:00:13;98645.28;;;19.44;51.30
60820;BME280;46641;48.904;9.126;2023-08-08T08:05:04;98645.72;;;19.48;51.46
60820;BME280;46641;48.904;9.126;2023-08-08T08:09:56;98641.22;;;19.48;51.14
60820;BME280;46641;48.904;9.126;2023-08-08T08:14:46;98643.47;;;19.51;51.32
60820;BME280;46641;48.904;9.126;2023-08-08T08:19:37;98631.00;;;19.58;51.52
60820;BME280;46641;48.904;9.126;2023-08-08T08:24:27;98632.09;;;19.64;51.34
60820;BME280;46641;48.904;9.126;2023-08-08T08:29:18;98640.69;;;19.73;51.30
60820;BME280;46641;48.904;9.126;2023-08-08T08:34:08;98629.03;;;19.74;51.11
60820;BME280;46641;48.904;9.126;2023-08-08T08:38:58;98639.84;;;19.79;51.27
60820;BME280;46641;48.904;9.126;2023-08-08T08:43:49;98634.75;;;19.84;51.27
60820;BME280;46641;48.904;9.126;2023-08-08T08:48:40;98638.22;;;19.91;51.28
60820;BME280;46641;48.904;9.126;2023-08-08T08:53:31;98636.19;;;20.00;50.93
60820;BME280;46641;48.904;9.126;2023-08-08T08:58:24;98632.91;;;20.04;50.77
60820;BME280;46641;48.904;9.126;2023-08-08T09:03:16;98632.06;;;20.11;50.81
60820;BME280;46641;48.904;9.126;2023-08-08T09:08:07;98621.25;;;20.19;50.67
60820;BME280;46641;48.904;9.126;2023-08-08T09:12:58;98623.69;;;20.27;50.59
60820;BME280;46641;48.904;9.126;2023-08-08T09:17:49;98616.09;;;20.37;50.47
60820;BME280;46641;48.904;9.126;2023-08-08T09:22:39;98617.31;;;20.48;50.20
60820;BME280;46641;48.904;9.126;2023-08-08T09:27:29;98605.44;;;20.57;50.16
60820;BME280;46641;48.904;9.126;2023-08-08T09:32:20;98608.69;;;20.66;49.61
60820;BME280;46641;48.904;9.126;2023-08-08T09:37:10;98600.47;;;20.74;50.00
60820;BME280;46641;48.904;9.126;2023-08-08T09:42:01;98594.31;;;20.80;49.95
60820;BME280;46641;48.904;9.126;2023-08-08T09:46:52;98593.03;;;20.89;49.68
60820;BME280;46641;48.904;9.126;2023-08-08T09:51:43;98589.09;;;20.98;49.58
60820;BME280;46641;48.904;9.126;2023-08-08T09:56:34;98586.38;;;21.12;49.57
60820;BME280;46641;48.904;9.126;2023-08-08T10:01:26;98590.84;;;21.18;49.83
60820;BME280;46641;48.904;9.126;2023-08-08T10:06:17;98582.19;;;21.29;50.21
60820;BME280;46641;48.904;9.126;2023-08-08T10:11:07;98576.19;;;21.40;50.35
60820;BME280;46641;48.904;9.126;2023-08-08T10:16:04;98574.09;;;21.49;50.55
60820;BME280;46641;48.904;9.126;2023-08-08T10:20:57;98587.72;;;21.59;50.61
60820;BME280;46641;48.904;9.126;2023-08-08T10:25:51;98583.78;;;21.68;51.07
60820;BME280;46641;48.904;9.126;2023-08-08T10:30:55;98590.47;;;21.78;51.00
60820;BME280;46641;48.904;9.126;2023-08-08T10:36:04;98588.69;;;21.90;50.78
60820;BME280;46641;48.904;9.126;2023-08-08T10:40:58;98589.03;;;22.00;51.08
60820;BME280;46641;48.904;9.126;2023-08-08T10:45:50;98589.34;;;22.10;51.06
60820;BME280;46641;48.904;9.126;2023-08-08T10:50:41;98579.84;;;22.21;50.96
60820;BME280;46641;48.904;9.126;2023-08-08T10:55:33;98580.38;;;22.30;51.04
60820;BME280;46641;48.904;9.126;2023-08-08T11:00:27;98576.16;;;22.40;51.26
60820;BME280;46641;48.904;9.126;2023-08-08T11:05:18;98579.72;;;22.53;51.29
60820;BME280;46641;48.904;9.126;2023-08-08T11:10:09;98559.69;;;22.62;51.40
60820;BME280;46641;48.904;9.126;2023-08-08T11:14:59;98570.41;;;22.74;51.41
60820;BME280;46641;48.904;9.126;2023-08-08T11:19:50;98568.84;;;22.84;51.41
60820;BME280;46641;48.904;9.126;2023-08-08T11:24:41;98567.06;;;22.97;51.36
60820;BME280;46641;48.904;9.126;2023-08-08T11:29:31;98568.75;;;23.09;51.16
60820;BME280;46641;48.904;9.126;2023-08-08T11:34:21;98570.66;;;23.21;51.30
60820;BME280;46641;48.904;9.126;2023-08-08T11:39:12;98558.97;;;23.33;51.32
60820;BME280;46641;48.904;9.126;2023-08-08T11:44:06;98562.44;;;23.46;50.90
60820;BME280;46641;48.904;9.126;2023-08-08T11:49:05;98560.03;;;23.56;50.86
60820;BME280;46641;48.904;9.126;2023-08-08T11:53:59;98555.16;;;23.65;51.12
60820;BME280;46641;48.904;9.126;2023-08-08T11:58:50;98554.63;;;23.74;51.06
60820;BME280;46641;48.904;9.126;2023-08-08T12:03:45;98544.41;;;23.83;50.61
60820;BME280;46641;48.904;9.126;2023-08-08T12:08:35;98549.63;;;23.90;50.89
60820;BME280;46641;48.904;9.126;2023-08-08T12:13:26;98546.25;;;23.94;50.91
60820;BME280;46641;48.904;9.126;2023-08-08T12:18:18;98530.09;;;24.01;50.84
60820;BME280;46641;48.904;9.126;2023-08-08T12:23:08;98535.78;;;24.05;50.66
60820;BME280;46641;48.904;9.126;2023-08-08T12:27:59;98536.25;;;24.01;50.87
60820;BME280;46641;48.904;9.126;2023-08-08T12:32:49;98537.19;;;24.07;50.49
60820;BME280;46641;48.904;9.126;2023-08-08T12:37:39;98534.03;;;24.10;50.56
60820;BME280;46641;48.904;9.126;2023-08-08T12:42:30;98532.75;;;24.13;50.38
60820;BME280;46641;48.904;9.126;2023-08-08T12:47:20;98525.31;;;24.15;50.50
60820;BME280;46641;48.904;9.126;2023-08-08T12:52:11;98532.03;;;24.17;50.54
60820;BME280;46641;48.904;9.126;2023-08-08T12:57:02;98521.94;;;24.19;50.15
60820;BME280;46641;48.904;9.126;2023-08-08T13:01:52;98517.72;;;24.23;50.29
60820;BME280;46641;48.904;9.126;2023-08-08T13:06:42;98523.41;;;24.27;50.64
60820;BME280;46641;48.904;9.126;2023-08-08T13:11:33;98517.59;;;24.30;50.21
60820;BME280;46641;48.904;9.126;2023-08-08T13:16:23;98515.19;;;24.29;50.55
60820;BME280;46641;48.904;9.126;2023-08-08T13:21:13;98515.03;;;24.35;49.02
60820;BME280;46641;48.904;9.126;2023-08-08T13:26:04;98516.66;;;24.36;49.24
60820;BME280;46641;48.904;9.126;2023-08-08T13:30:54;98503.06;;;24.38;49.33
60820;BME280;46641;48.904;9.126;2023-08-08T13:35:44;98507.97;;;24.41;49.58
60820;BME280;46641;48.904;9.126;2023-08-08T13:40:35;98498.63;;;24.43;49.70
60820;BME280;46641;48.904;9.126;2023-08-08T13:45:25;98492.81;;;24.46;49.79
60820;BME280;46641;48.904;9.126;2023-08-08T13:50:15;98499.09;;;24.52;49.37
60820;BME280;46641;48.904;9.126;2023-08-08T13:55:06;98488.97;;;24.54;49.59
60820;BME280;46641;48.904;9.126;2023-08-08T13:59:57;98502.09;;;24.56;49.43
60820;BME280;46641;48.904;9.126;2023-08-08T14:04:47;98488.00;;;24.60;49.40
60820;BME280;46641;48.904;9.126;2023-08-08T14:09:38;98487.25;;;24.48;45.96
60820;BME280;46641;48.904;9.126;2023-08-08T14:14:28;98496.22;;;24.70;46.42
60820;BME280;46641;48.904;9.126;2023-08-08T14:19:19;98501.28;;;24.84;46.33
60820;BME280;46641;48.904;9.126;2023-08-08T14:24:09;98505.72;;;24.78;46.77
60820;BME280;46641;48.904;9.126;2023-08-08T14:29:00;98498.19;;;24.75;47.13
60820;BME280;46641;48.904;9.126;2023-08-08T14:33:50;98494.22;;;24.78;47.22
60820;BME280;46641;48.904;9.126;2023-08-08T14:38:40;98496.41;;;24.81;47.14
60820;BME280;46641;48.904;9.126;2023-08-08T14:43:31;98518.16;;;24.84;46.92
60820;BME280;46641;48.904;9.126;2023-08-08T14:48:21;98500.81;;;24.87;47.21
60820;BME280;46641;48.904;9.126;2023-08-08T14:53:11;98509.19;;;24.90;46.86
60820;BME280;46641;48.904;9.126;2023-08-08T14:58:03;98507.06;;;24.92;46.64
60820;BME280;46641;48.904;9.126;2023-08-08T15:02:53;98511.84;;;24.90;47.05
60820;BME280;46641;48.904;9.126;2023-08-08T15:07:43;98508.69;;;24.93;47.21
60820;BME280;46641;48.904;9.126;2023-08-08T15:12:34;98503.34;;;24.93;47.08
60820;BME280;46641;48.904;9.126;2023-08-08T15:17:25;98498.31;;;24.97;47.26
60820;BME280;46641;48.904;9.126;2023-08-08T15:22:15;98508.78;;;24.99;47.07
60820;BME280;46641;48.904;9.126;2023-08-08T15:27:05;98518.19;;;25.01;46.70
60820;BME280;46641;48.904;9.126;2023-08-08T15:31:56;98526.22;;;25.01;46.84
60820;BME280;46641;48.904;9.126;2023-08-08T15:36:46;98519.81;;;25.02;46.75
60820;BME280;46641;48.904;9.126;2023-08-08T15:41:37;98509.47;;;25.06;46.85
60820;BME280;46641;48.904;9.126;2023-08-08T15:46:27;98513.97;;;25.05;46.75
60820;BME280;46641;48.904;9.126;2023-08-08T15:51:17;98511.63;;;25.09;46.97
60820;BME280;46641;48.904;9.126;2023-08-08T15:56:08;98516.16;;;25.08;46.76
60820;BME280;46641;48.904;9.126;2023-08-08T16:00:58;98506.25;;;25.09;46.71
60820;BME280;46641;48.904;9.126;2023-08-08T16:05:49;98506.03;;;25.10;46.33
60820;BME280;46641;48.904;9.126;2023-08-08T16:10:39;98505.22;;;25.10;46.15
60820;BME280;46641;48.904;9.126;2023-08-08T16:15:31;98504.44;;;25.09;46.15
60820;BME280;46641;48.904;9.126;2023-08-08T16:20:21;98503.34;;;25.10;45.20
60820;BME280;46641;48.904;9.126;2023-08-08T16:25:13;98499.88;;;25.10;45.70
60820;BME280;46641;48.904;9.126;2023-08-08T16:30:03;98504.16;;;25.11;45.41
60820;BME280;46641;48.904;9.126;2023-08-08T16:34:55;98499.63;;;25.11;46.19
60820;BME280;46641;48.904;9.126;2023-08-08T16:39:46;98495.31;;;25.10;46.33
60820;BME280;46641;48.904;9.126;2023-08-08T16:44:37;98498.81;;;25.11;46.11
60820;BME280;46641;48.904;9.126;2023-08-08T16:49:27;98507.66;;;25.11;45.56
60820;BME280;46641;48.904;9.126;2023-08-08T16:54:18;98514.31;;;25.09;45.29
60820;BME280;46641;48.904;9.126;2023-08-08T16:59:08;98513.50;;;25.08;45.49
60820;BME280;46641;48.904;9.126;2023-08-08T17:03:58;98512.69;;;25.08;45.36
60820;BME280;46641;48.904;9.126;2023-08-08T17:08:49;98527.38;;;25.05;45.33
60820;BME280;46641;48.904;9.126;2023-08-08T17:13:39;98527.63;;;25.04;45.32
60820;BME280;46641;48.904;9.126;2023-08-08T17:18:29;98528.69;;;25.03;45.08
60820;BME280;46641;48.904;9.126;2023-08-08T17:23:20;98531.34;;;25.03;44.57
60820;BME280;46641;48.904;9.126;2023-08-08T17:28:10;98529.72;;;25.02;45.77
60820;BME280;46641;48.904;9.126;2023-08-08T17:33:00;98522.16;;;24.99;45.51
60820;BME280;46641;48.904;9.126;2023-08-08T17:37:51;98526.97;;;24.97;45.38
60820;BME280;46641;48.904;9.126;2023-08-08T17:42:41;98525.31;;;24.95;45.62
60820;BME280;46641;48.904;9.126;2023-08-08T17:47:31;98518.94;;;24.97;45.54
60820;BME280;46641;48.904;9.126;2023-08-08T17:52:22;98530.13;;;24.93;45.52
60820;BME280;46641;48.904;9.126;2023-08-08T17:57:12;98533.59;;;24.65;40.62
60820;BME280;46641;48.904;9.126;2023-08-08T18:02:04;98525.06;;;24.16;43.89
60820;BME280;46641;48.904;9.126;2023-08-08T18:06:55;98520.03;;;24.55;43.25
60820;BME280;46641;48.904;9.126;2023-08-08T18:11:45;98531.59;;;24.72;43.21
60820;BME280;46641;48.904;9.126;2023-08-08T18:16:36;98522.84;;;24.77;43.17
60820;BME280;46641;48.904;9.126;2023-08-08T18:21:27;98519.13;;;24.78;43.34
60820;BME280;46641;48.904;9.126;2023-08-08T18:26:17;98509.69;;;24.76;43.68
60820;BME280;46641;48.904;9.126;2023-08-08T18:31:08;98513.44;;;24.75;43.59
60820;BME280;46641;48.904;9.126;2023-08-08T18:35:58;98519.25;;;24.71;43.81
60820;BME280;46641;48.904;9.126;2023-08-08T18:40:53;98515.19;;;24.69;43.91
60820;BME280;46641;48.904;9.126;2023-08-08T18:45:43;98517.31;;;24.67;43.62
60820;BME280;46641;48.904;9.126;2023-08-08T18:50:34;98519.63;;;24.63;44.05
60820;BME280;46641;48.904;9.126;2023-08-08T18:55:24;98526.50;;;24.59;43.93
60820;BME280;46641;48.904;9.126;2023-08-08T19:00:14;98522.44;;;24.57;43.72
60820;BME280;46641;48.904;9.126;2023-08-08T19:05:05;98528.31;;;24.54;43.89
60820;BME280;46641;48.904;9.126;2023-08-08T19:09:56;98540.03;;;24.53;44.43
60820;BME280;46641;48.904;9.126;2023-08-08T19:14:46;98538.63;;;24.50;44.40
60820;BME280;46641;48.904;9.126;2023-08-08T19:19:36;98547.97;;;24.47;44.18
60820;BME280;46641;48.904;9.126;2023-08-08T19:24:27;98548.66;;;24.43;44.42
60820;BME280;46641;48.904;9.126;2023-08-08T19:29:17;98554.44;;;24.40;44.39
60820;BME280;46641;48.904;9.126;2023-08-08T19:34:07;98560.06;;;24.38;44.57
60820;BME280;46641;48.904;9.126;2023-08-08T19:38:57;98559.72;;;24.35;44.19
60820;BME280;46641;48.904;9.126;2023-08-08T19:43:48;98562.84;;;24.32;44.28
60820;BME280;46641;48.904;9.126;2023-08-08T19:48:38;98554.72;;;24.26;44.47
60820;BME280;46641;48.904;9.126;2023-08-08T19:53:28;98557.63;;;24.25;44.53
60820;BME280;46641;48.904;9.126;2023-08-08T19:58:19;98550.09;;;24.22;44.45
60820;BME280;46641;48.904;9.126;2023-08-08T20:03:10;98559.38;;;24.19;44.71
60820;BME280;46641;48.904;9.126;2023-08-08T20:08:00;98558.22;;;24.15;44.70
60820;BME280;46641;48.904;9.126;2023-08-08T20:12:50;98552.06;;;24.15;44.62
60820;BME280;46641;48.904;9.126;2023-08-08T20:17:42;98545.31;;;24.12;44.60
60820;BME280;46641;48.904;9.126;2023-08-08T20:22:33;98539.38;;;24.10;45.00
60820;BME280;46641;48.904;9.126;2023-08-08T20:27:23;98543.34;;;24.08;44.52
60820;BME280;46641;48.904;9.126;2023-08-08T20:32:14;98540.09;;;24.06;44.93
60820;BME280;46641;48.904;9.126;2023-08-08T20:37:04;98538.69;;;24.03;44.70
60820;BME280;46641;48.904;9.126;2023-08-08T20:41:56;98544.50;;;24.00;44.82
60820;BME280;46641;48.904;9.126;2023-08-08T20:46:47;98543.13;;;23.97;44.90
60820;BME280;46641;48.904;9.126;2023-08-08T20:51:38;98532.31;;;23.92;44.81
60820;BME280;46641;48.904;9.126;2023-08-08T20:56:29;98538.69;;;23.91;45.20
60820;BME280;46641;48.904;9.126;2023-08-08T21:01:19;98544.75;;;23.87;45.18
60820;BME280;46641;48.904;9.126;2023-08-08T21:06:10;98526.72;;;23.82;45.16
60820;BME280;46641;48.904;9.126;2023-08-08T21:11:00;98534.97;;;23.81;45.15
60820;BME280;46641;48.904;9.126;2023-08-08T21:15:50;98524.75;;;23.77;45.16
60820;BME280;46641;48.904;9.126;2023-08-08T21:20:41;98519.88;;;23.74;44.96
60820;BME280;46641;48.904;9.126;2023-08-08T21:25:31;98525.69;;;23.71;45.24
60820;BME280;46641;48.904;9.126;2023-08-08T21:30:22;98528.81;;;23.68;45.57
60820;BME280;46641;48.904;9.126;2023-08-08T21:35:12;98526.38;;;23.67;45.57
60820;BME280;46641;48.904;9.126;2023-08-08T21:40:02;98516.34;;;23.62;45.49
60820;BME280;46641;48.904;9.126;2023-08-08T21:44:53;98523.81;;;23.60;45.61
60820;BME280;46641;48.904;9.126;2023-08-08T21:49:43;98508.44;;;23.55;45.69
60820;BME280;46641;48.904;9.126;2023-08-08T21:54:33;98504.16;;;23.54;45.48
60820;BME280;46641;48.904;9.126;2023-08-08T21:59:24;98496.59;;;23.51;45.68
60820;BME280;46641;48.904;9.126;2023-08-08T22:04:14;98489.84;;;23.49;46.00
60820;BME280;46641;48.904;9.126;2023-08-08T22:09:04;98487.66;;;23.46;45.68
60820;BME280;46641;48.904;9.126;2023-08-08T22:13:55;98478.81;;;23.45;45.73
60820;BME280;46641;48.904;9.126;2023-08-08T22:18:45;98481.75;;;23.44;45.86
60820;BME280;46641;48.904;9.126;2023-08-08T22:23:36;98476.06;;;23.40;46.04
60820;BME280;46641;48.904;9.126;2023-08-08T22:28:26;98474.41;;;23.39;45.92
60820;BME280;46641;48.904;9.126;2023-08-08T22:33:16;98473.25;;;23.35;45.91
60820;BME280;46641;48.904;9.126;2023-08-08T22:38:07;98470.81;;;23.33;46.01
60820;BME280;46641;48.904;9.126;2023-08-08T22:42:57;98467.56;;;23.31;45.88
60820;BME280;46641;48.904;9.126;2023-08-08T22:47:47;98465.34;;;23.28;46.30
60820;BME280;46641;48.904;9.126;2023-08-08T22:52:38;98474.63;;;23.26;46.03
60820;BME280;46641;48.904;9.126;2023-08-08T22:57:28;98465.22;;;23.23;46.25
60820;BME280;46641;48.904;9.126;2023-08-08T23:02:19;98460.09;;;23.22;46.02
60820;BME280;46641;48.904;9.126;2023-08-08T23:07:09;98459.75;;;23.18;46.16
60820;BME280;46641;48.904;9.126;2023-08-08T23:11:59;98458.16;;;23.17;46.35
60820;BME280;46641;48.904;9.126;2023-08-08T23:16:50;98459.63;;;23.13;46.43
60820;BME280;46641;48.904;9.126;2023-08-08T23:21:40;98463.34;;;23.12;46.29
60820;BME280;46641;48.904;9.126;2023-08-08T23:26:31;98454.75;;;23.10;46.47
60820;BME280;46641;48.904;9.126;2023-08-08T23:31:21;98448.84;;;23.08;46.16
60820;BME280;46641;48.904;9.126;2023-08-08T23:36:11;98448.25;;;23.06;46.42
60820;BME280;46641;48.904;9.126;2023-08-08T23:41:02;98454.03;;;23.03;46.17
60820;BME280;46641;48.904;9.126;2023-08-08T23:45:53;98451.00;;;22.99;46.72
60820;BME280;46641;48.904;9.126;2023-08-08T23:50:43;98453.09;;;22.97;46.66
60820;BME280;46641;48.904;9.126;2023-08-08T23:55:33;98440.19;;;22.94;46.46
